Time;durP1;ratioP1;P1;durP2;ratioP2;P2;SDS_P1;SDS_P2;PMS_P1;PMS_P2;Temp;Humidity;BMP_temperature;BMP_pressure;BME280_temperature;BME280_humidity;BME280_pressure;Samples;Min_cycle;Max_cycle;Signal;HPM_P1;HPM_P2
2022/03/15 00:00:58;;;;;;;18.53;12.97;;;4.60;99.90;;;5.36;100.00;-19909.41;5092660;28;20233;-59
2022/03/15 00:03:26;;;;;;;16.90;12.50;;;4.50;99.90;;;5.29;100.00;-19906.84;5094199;28;20667;-61
2022/03/15 00:05:54;;;;;;;15.63;12.27;;;4.50;99.90;;;5.29;100.00;-19906.84;5094089;28;20230;-60
2022/03/15 00:08:22;;;;;;;19.10;12.27;;;4.50;99.90;;;5.32;100.00;-19908.03;5093666;28;20230;-60
2022/03/15 00:10:55;;;;;;;16.80;12.13;;;4.50;99.90;;;5.39;100.00;-19910.25;5093747;28;20854;-60
2022/03/15 00:13:23;;;;;;;17.47;12.50;;;4.50;99.90;;;5.45;100.00;-19912.47;5093241;28;20227;-60
2022/03/15 00:15:52;;;;;;;18.33;12.83;;;4.60;99.90;;;5.52;100.00;-19914.88;5093704;28;20633;-60
2022/03/15 00:18:21;;;;;;;17.83;12.53;;;4.60;99.90;;;5.52;100.00;-19914.88;5094053;28;20196;-58
2022/03/15 00:20:49;;;;;;;18.10;12.73;;;4.60;99.90;;;5.34;100.00;-19908.72;5093288;28;20738;-60
2022/03/15 00:23:17;;;;;;;17.00;10.63;;;4.60;99.90;;;5.38;100.00;-19909.91;5093642;28;20322;-60
2022/03/15 00:25:45;;;;;;;21.13;11.97;;;4.50;99.90;;;5.22;100.00;-19904.63;5093415;28;20314;-60
2022/03/15 00:28:14;;;;;;;16.30;11.50;;;4.50;99.90;;;5.25;100.00;-19905.63;5093261;28;20220;-60
2022/03/15 00:30:42;;;;;;;18.27;11.20;;;4.50;99.90;;;5.16;100.00;-19902.56;5093778;28;20209;-61
2022/03/15 00:33:11;;;;;;;15.37;11.50;;;4.40;99.90;;;5.13;100.00;-19901.38;5093909;28;20291;-59
2022/03/15 00:35:39;;;;;;;16.13;11.53;;;4.40;99.90;;;5.05;100.00;-19898.63;5093038;28;20277;-61
2022/03/15 00:38:07;;;;;;;18.07;11.60;;;4.30;99.90;;;5.02;100.00;-19897.59;5093362;28;20314;-59
2022/03/15 00:40:36;;;;;;;17.07;11.30;;;4.30;99.90;;;5.04;100.00;-19898.28;5093056;28;20292;-59
2022/03/15 00:43:06;;;;;;;17.23;12.07;;;4.20;99.90;;;5.06;100.00;-19898.97;5092566;28;20665;-60
2022/03/15 00:45:35;;;;;;;15.07;11.47;;;4.20;99.90;;;4.98;100.00;-19896.41;5093861;28;20298;-59
2022/03/15 00:48:04;;;;;;;18.60;12.73;;;4.20;99.90;;;4.87;100.00;-19892.81;5092786;28;20260;-60
2022/03/15 00:50:36;;;;;;;17.30;12.10;;;4.10;99.90;;;4.86;100.00;-19892.31;5092582;28;20746;-59
2022/03/15 00:53:04;;;;;;;16.80;11.93;;;4.10;99.90;;;4.85;100.00;-19892.13;5092687;28;20317;-58
2022/03/15 00:55:32;;;;;;;17.13;12.90;;;4.10;99.90;;;4.78;100.00;-19889.56;5093086;28;20725;-60
2022/03/15 00:58:00;;;;;;;17.77;12.17;;;4.00;99.90;;;4.76;100.00;-19888.88;5092730;28;20222;-59
2022/03/15 01:00:30;;;;;;;15.87;12.13;;;4.00;99.90;;;4.79;100.00;-19889.91;5093312;28;20685;-60
2022/03/15 01:02:59;;;;;;;19.03;12.73;;;4.00;99.90;;;4.82;100.00;-19890.94;5092449;28;20232;-60
2022/03/15 01:05:28;;;;;;;19.73;13.10;;;4.00;99.90;;;4.99;100.00;-19896.75;5092902;28;20223;-60
2022/03/15 01:07:56;;;;;;;16.13;11.80;;;4.10;99.90;;;4.85;100.00;-19891.97;5092309;28;20746;-61
2022/03/15 01:10:24;;;;;;;18.57;12.57;;;4.10;99.90;;;5.13;100.00;-19901.53;5092449;28;20728;-59
2022/03/15 01:12:52;;;;;;;15.87;12.43;;;4.20;99.90;;;4.95;100.00;-19895.38;5091889;28;20234;-60
2022/03/15 01:15:21;;;;;;;25.13;14.70;;;4.20;99.90;;;4.87;100.00;-19892.81;5093220;28;20293;-59
2022/03/15 01:17:49;;;;;;;20.07;13.70;;;4.20;99.90;;;4.81;100.00;-19890.59;5092554;28;20227;-59
2022/03/15 01:20:19;;;;;;;21.73;13.50;;;4.10;99.90;;;4.85;100.00;-19892.13;5092242;28;20601;-60
2022/03/15 01:22:47;;;;;;;20.70;13.20;;;4.10;99.90;;;4.83;100.00;-19891.44;5092464;28;20671;-59
2022/03/15 01:25:15;;;;;;;19.53;13.40;;;4.10;99.90;;;4.84;100.00;-19891.78;5092534;28;20309;-60
2022/03/15 01:27:43;;;;;;;20.60;12.70;;;4.10;99.90;;;4.85;100.00;-19891.97;5092809;28;20202;-60
2022/03/15 01:30:11;;;;;;;18.03;12.67;;;4.10;99.90;;;4.75;100.00;-19888.72;5092488;28;20207;-60
2022/03/15 01:32:40;;;;;;;20.63;12.40;;;4.10;99.90;;;4.64;100.00;-19884.97;5092197;28;20313;-59
2022/03/15 01:35:08;;;;;;;17.23;11.77;;;4.00;99.90;;;4.71;100.00;-19887.34;5091769;28;20724;-59
2022/03/15 01:37:37;;;;;;;19.00;11.83;;;4.00;99.90;;;4.63;100.00;-19884.59;5091974;28;20269;-60
2022/03/15 01:40:07;;;;;;;18.60;12.23;;;3.90;99.90;;;4.73;100.00;-19887.88;5091801;28;20225;-59
2022/03/15 01:42:35;;;;;;;18.80;12.67;;;3.90;99.90;;;4.72;100.00;-19887.50;5092648;28;20621;-59
2022/03/15 01:45:05;;;;;;;20.87;12.23;;;3.90;99.90;;;4.58;100.00;-19882.91;5091700;28;20725;-58
2022/03/15 01:47:34;;;;;;;18.50;12.17;;;3.90;99.90;;;4.53;100.00;-19881.03;5091842;28;20212;-59
2022/03/15 01:50:02;;;;;;;17.13;12.30;;;3.80;99.90;;;4.64;100.00;-19884.78;5091962;28;20221;-60
2022/03/15 01:52:30;;;;;;;17.90;11.83;;;3.80;99.90;;;4.62;100.00;-19884.28;5091623;28;20699;-61
2022/03/15 01:54:59;;;;;;;17.33;11.50;;;3.80;99.90;;;4.59;100.00;-19883.25;5091478;28;20678;-59
2022/03/15 01:57:28;;;;;;;17.17;11.57;;;3.80;99.90;;;4.51;100.00;-19880.50;5092232;28;20288;-61
2022/03/15 01:59:56;;;;;;;18.47;12.07;;;3.80;99.90;;;4.47;100.00;-19879.16;5091167;28;20222;-60
2022/03/15 02:02:25;;;;;;;17.00;11.73;;;3.70;99.90;;;4.47;100.00;-19879.16;5091326;28;20601;-58
2022/03/15 02:04:53;;;;;;;20.33;12.60;;;3.70;99.90;;;4.50;100.00;-19880.00;5091465;28;20229;-60
2022/03/15 02:07:21;;;;;;;21.27;13.03;;;3.70;99.90;;;4.45;100.00;-19878.47;5092068;28;20297;-60
2022/03/15 02:09:50;;;;;;;21.17;12.67;;;3.70;99.90;;;4.49;100.00;-19879.81;5091495;28;20217;-60
2022/03/15 02:12:19;;;;;;;20.80;12.90;;;3.70;99.90;;;4.43;100.00;-19877.59;5091543;28;20234;-58
2022/03/15 02:14:47;;;;;;;20.07;13.07;;;3.70;99.90;;;4.40;100.00;-19876.56;5091010;28;20238;-58
2022/03/15 02:17:15;;;;;;;19.70;12.50;;;3.70;99.90;;;4.41;100.00;-19877.09;5091166;28;20721;-62
2022/03/15 02:19:45;;;;;;;18.77;12.47;;;3.70;99.90;;;4.41;100.00;-19877.09;5091174;28;20301;-59
2022/03/15 02:22:14;;;;;;;18.00;12.53;;;3.60;99.90;;;4.40;100.00;-19876.75;5091564;28;20226;-62
2022/03/15 02:24:42;;;;;;;17.83;12.37;;;3.60;99.90;;;4.34;100.00;-19874.53;5090260;28;20720;-59
2022/03/15 02:27:10;;;;;;;18.97;12.97;;;3.60;99.90;;;4.41;100.00;-19876.94;5091659;28;20645;-60
2022/03/15 02:29:38;;;;;;;19.07;12.17;;;3.60;99.90;;;4.40;100.00;-19876.75;5090873;28;20230;-61
2022/03/15 02:32:08;;;;;;;19.97;12.63;;;3.60;99.90;;;4.33;100.00;-19874.19;5091012;28;20314;-61
2022/03/15 02:34:36;;;;;;;19.07;12.63;;;3.60;99.90;;;4.33;100.00;-19874.34;5091303;28;20237;-60
2022/03/15 02:37:04;;;;;;;18.70;12.23;;;3.60;99.90;;;4.35;100.00;-19875.03;5091353;28;20221;-59
2022/03/15 02:39:34;;;;;;;16.87;11.90;;;3.60;99.90;;;4.40;100.00;-19876.75;5091483;28;20205;-60
2022/03/15 02:42:02;;;;;;;21.03;12.80;;;3.60;99.90;;;4.43;100.00;-19877.59;5091061;28;20278;-60
2022/03/15 02:44:30;;;;;;;17.17;12.03;;;3.60;99.90;;;4.42;100.00;-19877.44;5090343;28;20682;-59
2022/03/15 02:46:58;;;;;;;17.43;12.10;;;3.60;99.90;;;4.46;100.00;-19878.63;5091336;28;20643;-60
2022/03/15 02:49:26;;;;;;;18.80;12.83;;;3.60;99.90;;;4.41;100.00;-19877.09;5091287;28;20314;-59
2022/03/15 02:51:54;;;;;;;17.33;11.93;;;3.60;99.90;;;4.43;100.00;-19877.78;5091154;28;20249;-60
2022/03/15 02:54:22;;;;;;;16.97;12.13;;;3.60;99.90;;;4.36;100.00;-19875.38;5091888;28;20287;-60
2022/03/15 02:56:52;;;;;;;20.67;13.03;;;3.60;99.90;;;4.32;100.00;-19874.03;5090452;28;20310;-61
2022/03/15 02:59:21;;;;;;;18.37;12.13;;;3.60;99.90;;;4.34;100.00;-19874.69;5090679;28;20712;-60
2022/03/15 03:01:50;;;;;;;18.27;11.93;;;3.60;99.90;;;4.32;100.00;-19873.84;5091135;28;20226;-58
2022/03/15 03:04:21;;;;;;;18.40;11.33;;;3.60;99.90;;;4.36;100.00;-19875.38;5090805;28;20225;-61
2022/03/15 03:06:49;;;;;;;20.27;12.53;;;3.60;99.90;;;4.27;100.00;-19872.31;5091081;28;20307;-58
2022/03/15 03:09:17;;;;;;;16.77;12.00;;;3.60;99.90;;;4.27;100.00;-19872.13;5091729;28;20202;-59
2022/03/15 03:11:46;;;;;;;20.07;12.60;;;3.50;99.90;;;4.20;100.00;-19869.91;5090532;28;20309;-61
2022/03/15 03:14:18;;;;;;;17.57;13.07;;;3.50;99.90;;;4.19;100.00;-19869.56;5090501;28;20225;-58
2022/03/15 03:16:46;;;;;;;18.47;12.33;;;3.50;99.90;;;4.40;100.00;-19876.75;5090231;28;20316;-61
2022/03/15 03:19:14;;;;;;;18.83;12.43;;;3.60;99.90;;;4.38;100.00;-19875.91;5090825;28;20621;-60
2022/03/15 03:21:42;;;;;;;18.73;12.57;;;3.60;99.90;;;4.37;100.00;-19875.72;5090285;28;20200;-59
2022/03/15 03:24:10;;;;;;;18.80;12.37;;;3.60;99.90;;;4.40;100.00;-19876.75;5091432;28;20638;-59
2022/03/15 03:26:40;;;;;;;19.10;12.67;;;3.60;99.90;;;4.46;100.00;-19878.81;5090809;28;20780;-60
2022/03/15 03:29:10;;;;;;;18.23;12.23;;;3.60;99.90;;;4.42;100.00;-19877.44;5090521;28;20555;-60
2022/03/15 03:31:43;;;;;;;19.87;12.43;;;3.60;99.90;;;4.32;100.00;-19873.84;5090773;28;20289;-60
2022/03/15 03:34:13;;;;;;;19.47;12.37;;;3.60;99.90;;;4.29;100.00;-19873.00;5090801;28;20223;-59
2022/03/15 03:36:41;;;;;;;16.87;11.70;;;3.60;99.90;;;4.25;100.00;-19871.44;5094509;28;20220;-59
2022/03/15 03:39:29;;;;;;;20.60;12.27;;;3.50;99.90;;;4.16;100.00;-19868.53;5094409;28;20216;-61
2022/03/15 03:41:58;;;;;;;17.47;12.33;;;3.50;99.90;;;4.12;100.00;-19867.19;5094111;28;20908;-60
2022/03/15 03:44:27;;;;;;;17.47;11.93;;;3.50;99.90;;;4.10;100.00;-19866.31;5094065;28;20311;-59
2022/03/15 03:46:56;;;;;;;16.87;12.47;;;3.40;99.90;;;4.08;100.00;-19865.63;5094117;28;20298;-62
2022/03/15 03:49:24;;;;;;;19.23;12.30;;;3.40;99.90;;;4.07;100.00;-19865.47;5094629;28;20253;-60
2022/03/15 03:51:53;;;;;;;21.23;13.57;;;3.40;99.90;;;4.25;100.00;-19871.63;5094123;28;20203;-60
2022/03/15 03:54:21;;;;;;;16.47;11.60;;;3.40;99.90;;;4.14;100.00;-19867.88;5094868;28;20291;-60
2022/03/15 03:56:49;;;;;;;17.10;12.60;;;3.40;99.90;;;4.11;100.00;-19866.84;5093729;28;20364;-61
2022/03/15 03:59:17;;;;;;;19.00;12.37;;;3.40;99.90;;;4.19;100.00;-19869.56;5094146;28;20222;-58
2022/03/15 04:01:45;;;;;;;18.73;12.30;;;3.40;99.90;;;4.16;100.00;-19868.53;5093792;28;20244;-60
2022/03/15 04:04:15;;;;;;;16.80;11.80;;;3.40;99.90;;;4.16;100.00;-19868.38;5093858;28;20231;-59
2022/03/15 04:06:44;;;;;;;19.33;11.90;;;3.40;99.90;;;4.18;100.00;-19869.06;5093785;28;20295;-61
2022/03/15 04:09:12;;;;;;;17.90;11.60;;;3.40;99.90;;;4.08;100.00;-19865.63;5094566;28;20239;-59
2022/03/15 04:11:41;;;;;;;16.80;12.10;;;3.40;99.90;;;4.04;100.00;-19864.44;5093394;28;20227;-59
2022/03/15 04:14:11;;;;;;;17.77;12.03;;;3.40;99.90;;;4.03;100.00;-19863.94;5093483;28;20307;-60
2022/03/15 04:16:40;;;;;;;17.80;12.03;;;3.40;99.90;;;4.06;100.00;-19864.97;5093605;28;20236;-60
2022/03/15 04:19:09;;;;;;;17.10;12.10;;;3.30;99.90;;;4.17;100.00;-19868.88;5094032;28;20227;-60
2022/03/15 04:21:38;;;;;;;17.23;11.90;;;3.40;99.90;;;4.18;100.00;-19869.22;5094076;28;20230;-59
2022/03/15 04:24:07;;;;;;;16.93;11.33;;;3.40;99.90;;;4.04;100.00;-19864.28;5093900;28;20306;-60
2022/03/15 04:26:35;;;;;;;19.97;11.77;;;3.30;99.90;;;3.96;100.00;-19861.72;5093234;28;20310;-60
2022/03/15 04:29:03;;;;;;;17.17;11.17;;;3.30;99.90;;;3.97;100.00;-19862.06;5093695;28;20231;-59
2022/03/15 04:31:31;;;;;;;19.63;11.60;;;3.30;99.90;;;4.15;100.00;-19868.22;5093269;28;20230;-60
2022/03/15 04:33:59;;;;;;;17.43;11.37;;;3.30;99.90;;;4.19;100.00;-19869.41;5093055;28;20611;-60
2022/03/15 04:36:27;;;;;;;18.90;11.60;;;3.30;99.90;;;4.26;100.00;-19871.97;5093493;28;20302;-61
2022/03/15 04:38:58;;;;;;;21.00;12.07;;;3.40;99.90;;;4.16;100.00;-19868.53;5092930;28;20231;-59
2022/03/15 04:41:26;;;;;;;16.67;10.80;;;3.40;99.90;;;3.98;100.00;-19862.41;5093189;28;20305;-60
2022/03/15 04:43:54;;;;;;;17.17;11.93;;;3.30;99.90;;;3.92;100.00;-19860.34;5092870;28;20228;-61
2022/03/15 04:46:22;;;;;;;17.50;12.07;;;3.30;99.90;;;3.87;100.00;-19858.63;5092166;28;20323;-60
2022/03/15 04:48:51;;;;;;;14.47;10.40;;;3.20;99.90;;;3.95;100.00;-19861.38;5093236;28;20233;-59
2022/03/15 04:51:19;;;;;;;15.03;11.43;;;3.20;99.90;;;3.94;100.00;-19860.84;5093404;28;20698;-60
2022/03/15 04:53:48;;;;;;;16.33;11.23;;;3.20;99.90;;;3.90;100.00;-19859.66;5092815;28;20644;-59
2022/03/15 04:56:19;;;;;;;19.80;12.07;;;3.20;99.90;;;3.84;100.00;-19857.59;5092671;28;20249;-60
2022/03/15 04:58:47;;;;;;;18.37;12.67;;;3.20;99.90;;;3.84;100.00;-19857.44;5092608;28;20720;-60
2022/03/15 05:01:15;;;;;;;18.27;11.37;;;3.10;99.90;;;3.93;100.00;-19860.69;5092885;28;20302;-60
2022/03/15 05:03:44;;;;;;;15.83;11.70;;;3.20;99.90;;;3.96;100.00;-19861.72;5092511;28;20314;-59
2022/03/15 05:06:12;;;;;;;17.40;11.80;;;3.20;99.90;;;4.08;100.00;-19865.81;5093320;28;20204;-59
2022/03/15 05:08:40;;;;;;;17.60;11.73;;;3.20;99.90;;;4.05;100.00;-19864.78;5092306;28;20326;-60
2022/03/15 05:11:07;;;;;;;17.13;11.20;;;3.30;99.90;;;4.14;100.00;-19867.69;5092853;28;20229;-60
2022/03/15 05:13:39;;;;;;;16.57;11.87;;;3.30;99.90;;;4.01;100.00;-19863.41;5092041;28;20290;-59
2022/03/15 05:16:10;;;;;;;18.23;11.13;;;3.30;99.90;;;4.01;100.00;-19863.41;5092572;28;20242;-61
2022/03/15 05:18:40;;;;;;;17.77;11.03;;;3.30;99.90;;;4.04;100.00;-19864.44;5092757;28;20185;-60
2022/03/15 05:21:12;;;;;;;15.80;11.13;;;3.30;99.90;;;4.03;100.00;-19864.09;5092829;28;20206;-60
2022/03/15 05:23:40;;;;;;;16.33;10.07;;;3.30;99.90;;;4.03;100.00;-19864.09;5091946;28;20230;-60
2022/03/15 05:26:08;;;;;;;16.07;11.53;;;3.30;99.90;;;4.01;100.00;-19863.25;5092252;28;20587;-60
2022/03/15 05:28:38;;;;;;;18.30;10.53;;;3.30;99.90;;;4.08;100.00;-19865.81;5091873;28;20223;-61
2022/03/15 05:31:06;;;;;;;15.83;10.47;;;3.30;99.90;;;3.99;100.00;-19862.72;5092224;28;20311;-60
2022/03/15 05:33:34;;;;;;;15.70;10.67;;;3.30;99.90;;;4.01;100.00;-19863.25;5092693;28;20209;-61
2022/03/15 05:36:04;;;;;;;14.53;10.37;;;3.30;99.90;;;4.06;100.00;-19864.97;5091814;28;20230;-60
2022/03/15 05:38:32;;;;;;;16.37;11.40;;;3.30;99.90;;;4.18;100.00;-19869.22;5091705;28;20387;-61
2022/03/15 05:41:00;;;;;;;16.47;11.40;;;3.40;99.90;;;4.22;100.00;-19870.44;5091452;28;20247;-60
2022/03/15 05:43:50;;;;;;;16.50;11.30;;;3.40;99.90;;;4.28;100.00;-19872.66;5091025;28;20916;-60
2022/03/15 05:46:18;;;;;;;15.73;10.80;;;3.40;99.90;;;4.31;100.00;-19873.66;5091915;28;20237;-60
2022/03/15 05:48:47;;;;;;;15.80;10.73;;;3.50;99.90;;;4.47;100.00;-19878.97;5091956;28;20206;-62
2022/03/15 05:51:15;;;;;;;16.70;11.00;;;3.50;99.90;;;4.54;100.00;-19881.38;5092325;28;20210;-60
2022/03/15 05:53:43;;;;;;;17.93;10.90;;;3.60;99.90;;;4.73;100.00;-19888.03;5091739;28;20307;-60
2022/03/15 05:56:11;;;;;;;15.00;10.73;;;3.60;99.90;;;4.73;100.00;-19887.88;5091555;28;20231;-58
2022/03/15 05:58:46;;;;;;;14.90;10.07;;;3.70;99.90;;;4.84;100.00;-19891.63;5091332;28;20597;-60
2022/03/15 06:01:16;;;;;;;14.03;9.80;;;3.80;99.90;;;4.82;100.00;-19891.09;5091603;28;20302;-59
2022/03/15 06:03:44;;;;;;;13.93;8.90;;;3.80;99.90;;;5.09;100.00;-19900.00;5091748;28;20196;-59
2022/03/15 06:06:12;;;;;;;14.13;9.23;;;3.90;99.90;;;5.07;100.00;-19899.50;5091752;28;20655;-61
2022/03/15 06:08:40;;;;;;;13.20;9.60;;;4.00;99.90;;;5.13;100.00;-19901.38;5091683;28;20236;-59
2022/03/15 06:11:09;;;;;;;12.03;9.40;;;4.10;99.90;;;4.93;100.00;-19894.88;5091111;28;20636;-60
2022/03/15 06:13:37;;;;;;;13.50;9.73;;;4.10;99.90;;;5.07;100.00;-19899.50;5090633;28;20306;-60
2022/03/15 06:16:05;;;;;;;13.37;9.47;;;4.20;99.90;;;5.08;100.00;-19899.81;5091439;28;20305;-60
2022/03/15 06:18:35;;;;;;;11.60;8.57;;;4.20;99.90;;;5.10;100.00;-19900.50;5091722;28;20287;-59
2022/03/15 06:21:04;;;;;;;12.90;9.10;;;4.20;99.90;;;5.15;100.00;-19902.03;5091498;28;20235;-59
2022/03/15 06:23:32;;;;;;;11.87;8.83;;;4.30;99.90;;;5.11;100.00;-19900.69;5090824;28;20308;-60
2022/03/15 06:26:00;;;;;;;12.33;9.77;;;4.30;99.90;;;5.13;100.00;-19901.38;5090898;28;20979;-60
2022/03/15 06:28:28;;;;;;;11.50;9.33;;;4.30;99.90;;;5.06;100.00;-19899.13;5090586;28;20232;-60
2022/03/15 06:30:57;;;;;;;12.27;9.43;;;4.30;99.90;;;5.14;100.00;-19901.88;5090737;28;20637;-60
2022/03/15 06:33:25;;;;;;;15.50;9.63;;;4.40;99.90;;;5.27;100.00;-19906.16;5091590;28;20298;-59
2022/03/15 06:35:54;;;;;;;12.10;9.20;;;4.40;99.90;;;5.35;100.00;-19908.88;5090658;28;20306;-60
2022/03/15 06:38:24;;;;;;;11.47;9.13;;;4.50;99.90;;;5.51;100.00;-19914.34;5090293;28;20225;-60
2022/03/15 06:40:52;;;;;;;12.47;8.93;;;4.60;99.90;;;5.58;100.00;-19916.91;5090603;28;20314;-60
2022/03/15 06:43:20;;;;;;;12.53;9.40;;;4.60;99.90;;;5.63;100.00;-19918.47;5090049;28;20309;-60
2022/03/15 06:45:48;;;;;;;11.30;9.33;;;4.70;99.90;;;5.65;100.00;-19919.16;5090741;28;20299;-61
2022/03/15 06:48:16;;;;;;;12.60;8.60;;;4.70;99.90;;;5.83;100.00;-19925.31;5090941;28;20227;-60
2022/03/15 06:50:44;;;;;;;11.73;8.70;;;4.90;99.90;;;6.12;100.00;-19935.38;5090702;28;20766;-60
2022/03/15 06:53:14;;;;;;;13.03;7.77;;;4.90;99.90;;;6.01;100.00;-19931.44;5090463;28;20229;-60
2022/03/15 06:55:41;;;;;;;10.30;8.47;;;5.00;99.90;;;6.08;100.00;-19933.84;5090064;28;20223;-58
2022/03/15 06:58:09;;;;;;;11.97;8.67;;;5.00;99.90;;;6.18;100.00;-19937.44;5090098;28;20712;-60
2022/03/15 07:00:38;;;;;;;10.63;7.77;;;5.10;99.90;;;6.44;100.00;-19946.16;5090372;28;20207;-57
2022/03/15 07:03:06;;;;;;;9.33;7.60;;;5.20;99.90;;;6.45;100.00;-19946.50;5090344;28;20291;-62
2022/03/15 07:05:34;;;;;;;9.90;8.10;;;5.20;99.90;;;6.48;100.00;-19947.50;5090043;28;20248;-61
2022/03/15 07:08:02;;;;;;;12.73;8.10;;;5.30;99.90;;;6.57;100.00;-19950.59;5090444;28;20664;-62
2022/03/15 07:10:32;;;;;;;10.70;7.80;;;5.40;99.90;;;6.74;100.00;-19956.41;5092687;28;20303;-61
2022/03/15 07:13:00;;;;;;;11.57;7.63;;;5.40;99.90;;;6.69;100.00;-19954.69;5094089;28;20640;-61
2022/03/15 07:15:28;;;;;;;9.47;8.00;;;5.50;99.90;;;6.89;100.00;-19961.34;5094795;28;20213;-62
2022/03/15 07:17:59;;;;;;;10.60;7.67;;;5.60;99.90;;;6.91;100.00;-19962.03;5094062;28;20245;-62
2022/03/15 07:20:28;;;;;;;9.90;7.37;;;5.70;99.90;;;6.99;100.00;-19964.94;5094384;28;20307;-60
2022/03/15 07:22:56;;;;;;;8.73;6.90;;;5.70;99.90;;;7.00;100.00;-19965.13;5094269;28;20305;-61
2022/03/15 07:25:24;;;;;;;10.53;8.00;;;5.70;99.90;;;6.98;100.00;-19964.59;5093822;28;20234;-61
2022/03/15 07:27:54;;;;;;;11.80;7.37;;;5.70;99.90;;;7.20;100.00;-19972.13;5094069;28;20228;-61
2022/03/15 07:30:22;;;;;;;13.40;7.60;;;5.80;99.90;;;7.22;100.00;-19972.63;5094615;28;20272;-61
2022/03/15 07:32:50;;;;;;;9.93;7.00;;;5.90;99.90;;;7.32;100.00;-19976.22;5094007;28;20579;-61
2022/03/15 07:35:18;;;;;;;8.93;7.00;;;6.00;99.90;;;7.50;100.00;-19982.19;5093643;28;20216;-61
2022/03/15 07:37:55;;;;;;;8.10;6.80;;;6.00;99.90;;;7.64;100.00;-19986.81;5094100;28;20228;-62
2022/03/15 07:40:24;;;;;;;9.47;6.17;;;6.20;99.90;;;7.67;100.00;-19987.84;5094224;28;20228;-61
2022/03/15 07:42:54;;;;;;;9.03;7.00;;;6.30;99.90;;;7.60;100.00;-19985.63;5094078;28;20262;-59
2022/03/15 07:45:23;;;;;;;9.37;7.23;;;6.40;99.90;;;7.71;100.00;-19989.38;5093965;28;20601;-60
2022/03/15 07:47:52;;;;;;;8.15;7.10;;;6.40;99.90;;;7.80;100.00;-19992.47;5093290;28;20468;-61
2022/03/15 07:50:20;;;;;;;10.63;7.20;;;6.50;99.90;;;7.91;100.00;-19996.03;5093737;28;20261;-59
2022/03/15 07:52:50;;;;;;;8.77;7.30;;;6.60;99.90;;;8.07;100.00;-20001.69;5093459;28;20310;-58
2022/03/15 07:55:18;;;;;;;8.90;6.67;;;6.80;99.90;;;8.13;100.00;-20003.56;5093429;28;20218;-60
2022/03/15 07:57:46;;;;;;;7.43;6.67;;;6.90;99.90;;;8.37;100.00;-20011.78;5093140;28;20218;-58
2022/03/15 08:00:17;;;;;;;8.03;6.37;;;7.10;99.90;;;8.47;100.00;-20015.34;5093879;28;20271;-59
2022/03/15 08:02:45;;;;;;;7.33;6.33;;;7.10;99.90;;;8.67;100.00;-20022.03;5093351;28;20302;-59
2022/03/15 08:05:13;;;;;;;7.33;6.60;;;7.30;99.90;;;8.90;100.00;-20029.88;5093219;28;20226;-58
2022/03/15 08:07:41;;;;;;;7.80;6.73;;;7.50;99.90;;;8.85;100.00;-20028.00;5093137;28;20228;-58
2022/03/15 08:10:10;;;;;;;10.00;7.20;;;7.50;99.90;;;8.92;100.00;-20030.38;5092939;28;20306;-60
2022/03/15 08:12:40;;;;;;;9.40;6.90;;;7.50;99.90;;;9.02;100.00;-20033.97;5093354;28;20303;-55
2022/03/15 08:15:10;;;;;;;8.47;6.80;;;7.70;99.90;;;9.37;100.00;-20045.94;5093065;28;20639;-55
2022/03/15 08:17:41;;;;;;;7.27;6.53;;;7.70;99.90;;;9.40;100.00;-20046.78;5093038;28;20304;-52
2022/03/15 08:20:14;;;;;;;7.70;6.63;;;7.90;99.90;;;9.43;100.00;-20047.81;5093220;28;20224;-53
2022/03/15 08:22:42;;;;;;;8.17;6.70;;;7.90;99.90;;;9.57;100.00;-20052.78;5071721;28;20266;-55
2022/03/15 08:25:10;;;;;;;9.70;6.93;;;8.20;99.90;;;9.83;100.00;-20061.47;5072694;28;20252;-54
2022/03/15 08:27:38;;;;;;;10.30;7.00;;;8.20;99.90;;;9.81;100.00;-20060.97;5073365;28;20201;-55
2022/03/15 08:30:09;;;;;;;9.27;7.03;;;8.20;99.90;;;9.82;100.00;-20061.13;5073025;28;20223;-53
2022/03/15 08:32:38;;;;;;;8.50;7.20;;;8.30;99.90;;;9.96;100.00;-20065.75;5072696;28;20787;-57
2022/03/15 08:35:07;;;;;;;10.27;6.57;;;8.40;99.90;;;10.21;100.00;-20074.47;5072491;28;20311;-56
2022/03/15 08:37:37;;;;;;;9.10;6.73;;;8.40;99.90;;;10.09;100.00;-20070.38;5072867;28;20256;-58
2022/03/15 08:40:08;;;;;;;10.50;6.57;;;8.50;99.90;;;10.08;100.00;-20069.84;5082760;28;20223;-62
2022/03/15 08:42:37;;;;;;;8.20;6.57;;;8.50;99.90;;;10.07;100.00;-20069.50;5093082;28;20265;-59
2022/03/15 08:45:06;;;;;;;10.03;6.50;;;8.50;99.90;;;10.11;100.00;-20070.88;5092820;28;20294;-59
2022/03/15 08:47:34;;;;;;;9.50;6.43;;;8.60;99.90;;;10.19;100.00;-20073.78;5092256;28;20224;-59
2022/03/15 08:50:06;;;;;;;9.63;6.37;;;8.70;99.90;;;10.40;100.00;-20080.78;5092326;28;20310;-59
2022/03/15 08:52:34;;;;;;;7.53;6.17;;;8.90;99.90;;;10.51;100.00;-20084.53;5092702;28;20238;-59
2022/03/15 08:55:04;;;;;;;6.53;5.80;;;9.10;99.90;;;10.90;100.00;-20097.88;5092344;28;20327;-59
2022/03/15 08:57:32;;;;;;;7.27;6.47;;;9.10;99.90;;;10.73;100.00;-20092.22;5092543;28;20287;-61
2022/03/15 09:00:02;;;;;;;8.43;6.47;;;9.20;99.90;;;11.11;100.00;-20104.88;5092000;28;20745;-60
2022/03/15 09:02:30;;;;;;;6.83;6.13;;;9.20;99.90;;;10.98;100.00;-20100.78;5091784;28;20228;-60
2022/03/15 09:04:58;;;;;;;8.50;7.10;;;9.20;99.90;;;10.89;100.00;-20097.53;5091897;28;20804;-58
2022/03/15 09:07:30;;;;;;;11.20;7.13;;;9.20;99.90;;;11.05;100.00;-20103.16;5091909;28;20250;-58
2022/03/15 09:09:58;;;;;;;9.87;7.03;;;9.30;99.90;;;11.08;100.00;-20104.00;5091948;28;20747;-60
2022/03/15 09:12:26;;;;;;;9.73;7.60;;;9.40;99.90;;;11.05;100.00;-20103.16;5092394;28;20235;-59
2022/03/15 09:14:54;;;;;;;10.50;7.30;;;9.50;99.90;;;11.00;100.00;-20101.47;5092075;28;20315;-58
2022/03/15 09:17:22;;;;;;;10.40;7.27;;;9.40;99.90;;;11.40;100.00;-20114.94;5091552;28;20216;-61
2022/03/15 09:20:12;;;;;;;10.03;7.27;;;9.30;99.90;;;11.28;100.00;-20110.84;5092497;28;20363;-59
2022/03/15 09:22:41;;;;;;;12.27;7.80;;;9.40;99.90;;;11.09;100.00;-20104.34;5091817;28;20294;-60
2022/03/15 09:25:10;;;;;;;9.73;8.23;;;9.50;99.90;;;11.11;100.00;-20105.03;5091928;28;20224;-61
2022/03/15 09:27:38;;;;;;;9.50;7.40;;;9.50;99.90;;;11.14;100.00;-20106.06;5092382;28;20219;-59
2022/03/15 09:30:08;;;;;;;8.00;7.17;;;9.60;99.90;;;11.35;100.00;-20113.22;5091889;28;20277;-54
2022/03/15 09:32:36;;;;;;;7.70;6.90;;;9.80;99.90;;;11.48;100.00;-20117.69;5091161;28;20224;-55
2022/03/15 09:35:06;;;;;;;10.93;7.60;;;9.90;99.90;;;11.59;100.00;-20121.44;5091686;28;20228;-55
2022/03/15 09:37:34;;;;;;;9.73;6.97;;;10.00;99.90;;;11.74;100.00;-20126.38;5091529;28;20310;-56
2022/03/15 09:40:11;;;;;;;10.13;6.60;;;10.20;99.90;;;11.96;100.00;-20134.06;5091069;28;20803;-52
2022/03/15 09:42:41;;;;;;;7.23;5.73;;;10.40;99.90;;;12.13;100.00;-20139.88;5091448;28;20271;-58
2022/03/15 09:45:10;;;;;;;8.77;6.40;;;10.40;99.90;;;12.10;100.00;-20138.84;5091331;28;20203;-54
2022/03/15 09:47:41;;;;;;;7.17;6.40;;;10.30;99.90;;;12.41;100.00;-20149.28;5091439;28;20230;-57
2022/03/15 09:50:10;;;;;;;7.93;6.47;;;10.40;99.90;;;12.14;100.00;-20140.06;5091700;28;20315;-56
2022/03/15 09:52:39;;;;;;;6.90;6.20;;;10.50;99.90;;;12.15;100.00;-20140.56;5091688;28;20232;-57
2022/03/15 09:55:11;;;;;;;7.67;6.80;;;10.50;99.90;;;12.35;100.00;-20147.22;5091361;28;20219;-56
2022/03/15 09:57:40;;;;;;;8.60;6.20;;;10.60;99.90;;;12.45;99.63;-20150.47;5091334;28;20577;-57
2022/03/15 10:00:10;;;;;;;9.10;6.77;;;10.70;99.90;;;12.56;99.98;-20154.22;5091910;28;20204;-57
2022/03/15 10:02:41;;;;;;;11.70;7.77;;;10.80;99.90;;;12.76;99.61;-20161.06;5091216;28;20228;-57
2022/03/15 10:05:11;;;;;;;10.53;7.93;;;10.80;99.90;;;12.62;100.00;-20156.44;5091247;28;20713;-58
2022/03/15 10:07:40;;;;;;;9.67;7.57;;;10.90;99.90;;;12.75;100.00;-20160.72;5090821;28;20227;-55
2022/03/15 10:10:14;;;;;;;10.27;7.20;;;10.90;99.90;;;12.87;99.94;-20164.81;5091251;28;20494;-55
2022/03/15 10:12:43;;;;;;;9.83;7.60;;;11.00;99.90;;;12.87;99.40;-20164.81;5090812;28;20199;-53
2022/03/15 10:15:14;;;;;;;10.37;7.80;;;11.20;99.90;;;12.93;98.44;-20167.03;5091516;28;20234;-60